sensor_id;sensor_type;location;lat;lon;timestamp;temperature;humidity
17632;DHT22;8934;51.194;17.150;2023-04-26T00:02:24;3.30;99.90
17632;DHT22;8934;51.194;17.150;2023-04-26T00:05:13;3.20;99.90
17632;DHT22;8934;51.194;17.150;2023-04-26T00:08:02;3.10;99.90
17632;DHT22;8934;51.194;17.150;2023-04-26T00:10:51;3.00;99.90
17632;DHT22;8934;51.194;17.150;2023-04-26T00:13:38;2.90;99.90
17632;DHT22;8934;51.194;17.150;2023-04-26T00:16:26;2.80;99.90
17632;DHT22;8934;51.194;17.150;2023-04-26T00:19:14;2.70;99.90
17632;DHT22;8934;51.194;17.150;2023-04-26T00:22:02;2.70;99.90
17632;DHT22;8934;51.194;17.150;2023-04-26T00:24:51;2.50;99.90
17632;DHT22;8934;51.194;17.150;2023-04-26T00:27:40;2.40;99.90
17632;DHT22;8934;51.194;17.150;2023-04-26T00:30:28;2.40;99.90
17632;DHT22;8934;51.194;17.150;2023-04-26T00:33:16;2.30;99.90
17632;DHT22;8934;51.194;17.150;2023-04-26T00:36:04;2.10;99.90
17632;DHT22;8934;51.194;17.150;2023-04-26T00:38:51;2.10;99.90
17632;DHT22;8934;51.194;17.150;2023-04-26T00:41:39;2.00;99.90
17632;DHT22;8934;51.194;17.150;2023-04-26T00:44:28;2.00;99.90
17632;DHT22;8934;51.194;17.150;2023-04-26T00:47:16;1.90;99.90
17632;DHT22;8934;51.194;17.150;2023-04-26T00:50:06;1.80;99.90
17632;DHT22;8934;51.194;17.150;2023-04-26T00:52:56;1.90;99.90
17632;DHT22;8934;51.194;17.150;2023-04-26T00:55:44;1.80;99.90
17632;DHT22;8934;51.194;17.150;2023-04-26T00:58:32;1.80;99.90
17632;DHT22;8934;51.194;17.150;2023-04-26T01:01:21;1.80;99.90
17632;DHT22;8934;51.194;17.150;2023-04-26T01:04:10;1.80;99.90
17632;DHT22;8934;51.194;17.150;2023-04-26T01:07:01;1.90;99.90
17632;DHT22;8934;51.194;17.150;2023-04-26T01:09:51;2.00;99.90
17632;DHT22;8934;51.194;17.150;2023-04-26T01:12:39;2.10;99.90
17632;DHT22;8934;51.194;17.150;2023-04-26T01:15:27;2.20;99.90
17632;DHT22;8934;51.194;17.150;2023-04-26T01:18:17;2.30;99.90
17632;DHT22;8934;51.194;17.150;2023-04-26T01:21:04;2.30;99.90
17632;DHT22;8934;51.194;17.150;2023-04-26T01:23:54;2.40;99.90
17632;DHT22;8934;51.194;17.150;2023-04-26T01:26:42;2.50;99.90
17632;DHT22;8934;51.194;17.150;2023-04-26T01:29:33;2.50;99.90
17632;DHT22;8934;51.194;17.150;2023-04-26T01:32:22;2.50;99.90
17632;DHT22;8934;51.194;17.150;2023-04-26T01:35:09;2.50;99.90
17632;DHT22;8934;51.194;17.150;2023-04-26T01:37:58;2.40;99.90
17632;DHT22;8934;51.194;17.150;2023-04-26T01:40:47;2.40;99.90
17632;DHT22;8934;51.194;17.150;2023-04-26T01:43:35;2.30;99.90
17632;DHT22;8934;51.194;17.150;2023-04-26T01:46:23;2.30;99.90
17632;DHT22;8934;51.194;17.150;2023-04-26T01:49:11;2.30;99.90
17632;DHT22;8934;51.194;17.150;2023-04-26T01:52:00;2.40;99.90
17632;DHT22;8934;51.194;17.150;2023-04-26T01:54:48;2.40;99.90
17632;DHT22;8934;51.194;17.150;2023-04-26T01:57:40;2.40;99.90
17632;DHT22;8934;51.194;17.150;2023-04-26T02:00:28;2.40;99.90
17632;DHT22;8934;51.194;17.150;2023-04-26T02:03:16;2.40;99.90
17632;DHT22;8934;51.194;17.150;2023-04-26T02:06:04;2.40;99.90
17632;DHT22;8934;51.194;17.150;2023-04-26T02:08:52;2.30;99.90
17632;DHT22;8934;51.194;17.150;2023-04-26T02:11:40;2.30;99.90
17632;DHT22;8934;51.194;17.150;2023-04-26T02:14:30;2.30;99.90
17632;DHT22;8934;51.194;17.150;2023-04-26T02:17:17;2.20;99.90
17632;DHT22;8934;51.194;17.150;2023-04-26T02:20:07;2.20;99.90
17632;DHT22;8934;51.194;17.150;2023-04-26T02:22:55;2.10;99.90
17632;DHT22;8934;51.194;17.150;2023-04-26T02:25:45;2.00;99.90
17632;DHT22;8934;51.194;17.150;2023-04-26T02:28:33;2.00;99.90
17632;DHT22;8934;51.194;17.150;2023-04-26T02:31:21;1.90;99.90
17632;DHT22;8934;51.194;17.150;2023-04-26T02:34:09;1.80;99.90
17632;DHT22;8934;51.194;17.150;2023-04-26T02:36:57;1.80;99.90
17632;DHT22;8934;51.194;17.150;2023-04-26T02:39:48;1.80;99.90
17632;DHT22;8934;51.194;17.150;2023-04-26T02:42:36;1.80;99.90
17632;DHT22;8934;51.194;17.150;2023-04-26T02:45:23;1.80;99.90
17632;DHT22;8934;51.194;17.150;2023-04-26T02:48:12;1.90;99.90
17632;DHT22;8934;51.194;17.150;2023-04-26T02:51:00;1.90;99.90
17632;DHT22;8934;51.194;17.150;2023-04-26T02:53:48;1.80;99.90
17632;DHT22;8934;51.194;17.150;2023-04-26T02:56:36;1.80;99.90
17632;DHT22;8934;51.194;17.150;2023-04-26T02:59:24;1.90;99.90
17632;DHT22;8934;51.194;17.150;2023-04-26T03:02:13;1.90;99.90
17632;DHT22;8934;51.194;17.150;2023-04-26T03:05:03;1.90;99.90
17632;DHT22;8934;51.194;17.150;2023-04-26T03:07:51;1.90;99.90
17632;DHT22;8934;51.194;17.150;2023-04-26T03:10:39;2.00;99.90
17632;DHT22;8934;51.194;17.150;2023-04-26T03:13:27;2.00;99.90
17632;DHT22;8934;51.194;17.150;2023-04-26T03:16:18;2.10;99.90
17632;DHT22;8934;51.194;17.150;2023-04-26T03:19:06;2.20;99.90
17632;DHT22;8934;51.194;17.150;2023-04-26T03:21:56;2.20;99.90
17632;DHT22;8934;51.194;17.150;2023-04-26T03:24:44;2.10;99.90
17632;DHT22;8934;51.194;17.150;2023-04-26T03:27:32;2.10;99.90
17632;DHT22;8934;51.194;17.150;2023-04-26T03:30:20;2.10;99.90
17632;DHT22;8934;51.194;17.150;2023-04-26T03:33:08;2.00;99.90
17632;DHT22;8934;51.194;17.150;2023-04-26T03:35:56;1.90;99.90
17632;DHT22;8934;51.194;17.150;2023-04-26T03:38:45;1.90;99.90
17632;DHT22;8934;51.194;17.150;2023-04-26T03:41:35;1.90;99.90
17632;DHT22;8934;51.194;17.150;2023-04-26T03:44:27;2.00;99.90
17632;DHT22;8934;51.194;17.150;2023-04-26T03:47:16;2.00;99.90
17632;DHT22;8934;51.194;17.150;2023-04-26T03:50:06;2.00;99.90
17632;DHT22;8934;51.194;17.150;2023-04-26T03:52:54;2.10;99.90
17632;DHT22;8934;51.194;17.150;2023-04-26T03:55:43;2.10;99.90
17632;DHT22;8934;51.194;17.150;2023-04-26T03:58:31;2.10;99.90
17632;DHT22;8934;51.194;17.150;2023-04-26T04:01:19;2.10;99.90
17632;DHT22;8934;51.194;17.150;2023-04-26T04:04:07;2.00;99.90
17632;DHT22;8934;51.194;17.150;2023-04-26T04:06:55;2.10;99.90
17632;DHT22;8934;51.194;17.150;2023-04-26T04:09:43;2.10;99.90
17632;DHT22;8934;51.194;17.150;2023-04-26T04:12:32;2.20;99.90
17632;DHT22;8934;51.194;17.150;2023-04-26T04:15:20;2.20;99.90
17632;DHT22;8934;51.194;17.150;2023-04-26T04:18:08;2.20;99.90
17632;DHT22;8934;51.194;17.150;2023-04-26T04:20:56;2.20;99.90
17632;DHT22;8934;51.194;17.150;2023-04-26T04:23:44;2.40;99.90
17632;DHT22;8934;51.194;17.150;2023-04-26T04:26:32;2.50;99.90
17632;DHT22;8934;51.194;17.150;2023-04-26T04:29:22;2.60;99.90
17632;DHT22;8934;51.194;17.150;2023-04-26T04:32:09;2.80;99.90
17632;DHT22;8934;51.194;17.150;2023-04-26T04:34:59;3.00;99.90
17632;DHT22;8934;51.194;17.150;2023-04-26T04:37:47;3.10;99.90
17632;DHT22;8934;51.194;17.150;2023-04-26T04:40:36;3.20;99.90
17632;DHT22;8934;51.194;17.150;2023-04-26T04:43:24;3.30;99.90
17632;DHT22;8934;51.194;17.150;2023-04-26T04:46:14;3.40;99.90
17632;DHT22;8934;51.194;17.150;2023-04-26T04:49:03;3.40;99.90
17632;DHT22;8934;51.194;17.150;2023-04-26T04:51:51;3.40;99.90
17632;DHT22;8934;51.194;17.150;2023-04-26T04:54:39;3.40;99.90
17632;DHT22;8934;51.194;17.150;2023-04-26T04:57:27;3.40;99.90
17632;DHT22;8934;51.194;17.150;2023-04-26T05:00:16;3.50;99.90
17632;DHT22;8934;51.194;17.150;2023-04-26T05:03:18;3.60;99.90
17632;DHT22;8934;51.194;17.150;2023-04-26T05:06:06;3.70;99.90
17632;DHT22;8934;51.194;17.150;2023-04-26T05:08:54;3.80;99.90
17632;DHT22;8934;51.194;17.150;2023-04-26T05:11:42;3.80;99.90
17632;DHT22;8934;51.194;17.150;2023-04-26T05:14:30;3.90;99.90
17632;DHT22;8934;51.194;17.150;2023-04-26T05:17:21;4.00;99.90
17632;DHT22;8934;51.194;17.150;2023-04-26T05:20:11;4.10;99.90
17632;DHT22;8934;51.194;17.150;2023-04-26T05:23:00;4.20;99.90
17632;DHT22;8934;51.194;17.150;2023-04-26T05:25:47;4.30;99.90
17632;DHT22;8934;51.194;17.150;2023-04-26T05:28:54;4.40;99.90
17632;DHT22;8934;51.194;17.150;2023-04-26T05:31:48;4.60;99.90
17632;DHT22;8934;51.194;17.150;2023-04-26T05:35:02;4.70;99.90
17632;DHT22;8934;51.194;17.150;2023-04-26T05:37:51;4.80;99.90
17632;DHT22;8934;51.194;17.150;2023-04-26T05:40:40;4.90;99.90
17632;DHT22;8934;51.194;17.150;2023-04-26T05:43:28;5.00;99.90
17632;DHT22;8934;51.194;17.150;2023-04-26T05:46:16;5.10;99.90
17632;DHT22;8934;51.194;17.150;2023-04-26T05:49:04;5.20;99.90
17632;DHT22;8934;51.194;17.150;2023-04-26T05:51:52;5.20;99.90
17632;DHT22;8934;51.194;17.150;2023-04-26T05:54:41;5.30;99.90
17632;DHT22;8934;51.194;17.150;2023-04-26T05:57:29;5.40;99.90
17632;DHT22;8934;51.194;17.150;2023-04-26T06:00:18;5.40;99.90
17632;DHT22;8934;51.194;17.150;2023-04-26T06:03:09;5.50;99.90
17632;DHT22;8934;51.194;17.150;2023-04-26T06:05:58;5.60;99.90
17632;DHT22;8934;51.194;17.150;2023-04-26T06:08:47;5.70;99.90
17632;DHT22;8934;51.194;17.150;2023-04-26T06:11:36;5.80;99.90
17632;DHT22;8934;51.194;17.150;2023-04-26T06:14:24;5.90;99.90
17632;DHT22;8934;51.194;17.150;2023-04-26T06:17:21;6.00;99.90
17632;DHT22;8934;51.194;17.150;2023-04-26T06:20:09;6.10;99.90
17632;DHT22;8934;51.194;17.150;2023-04-26T06:22:57;6.20;99.90
17632;DHT22;8934;51.194;17.150;2023-04-26T06:25:44;6.20;99.90
17632;DHT22;8934;51.194;17.150;2023-04-26T06:28:34;6.30;99.90
17632;DHT22;8934;51.194;17.150;2023-04-26T06:31:21;6.40;99.90
17632;DHT22;8934;51.194;17.150;2023-04-26T06:34:10;6.40;99.90
17632;DHT22;8934;51.194;17.150;2023-04-26T06:37:00;6.50;99.90
17632;DHT22;8934;51.194;17.150;2023-04-26T06:39:49;6.80;99.90
17632;DHT22;8934;51.194;17.150;2023-04-26T06:42:38;6.90;99.90
17632;DHT22;8934;51.194;17.150;2023-04-26T06:45:47;7.10;99.90
17632;DHT22;8934;51.194;17.150;2023-04-26T06:48:37;7.30;99.90
17632;DHT22;8934;51.194;17.150;2023-04-26T06:51:25;7.50;99.90
17632;DHT22;8934;51.194;17.150;2023-04-26T06:54:14;7.50;99.90
17632;DHT22;8934;51.194;17.150;2023-04-26T06:57:02;7.40;99.90
17632;DHT22;8934;51.194;17.150;2023-04-26T06:59:49;7.50;99.90
17632;DHT22;8934;51.194;17.150;2023-04-26T07:02:39;7.60;99.90
17632;DHT22;8934;51.194;17.150;2023-04-26T07:05:27;7.80;99.90
17632;DHT22;8934;51.194;17.150;2023-04-26T07:08:15;8.00;99.90
17632;DHT22;8934;51.194;17.150;2023-04-26T07:11:08;8.20;99.90
17632;DHT22;8934;51.194;17.150;2023-04-26T07:13:56;8.30;99.90
17632;DHT22;8934;51.194;17.150;2023-04-26T07:16:43;8.30;99.90
17632;DHT22;8934;51.194;17.150;2023-04-26T07:19:32;8.40;99.90
17632;DHT22;8934;51.194;17.150;2023-04-26T07:22:20;8.40;99.90
17632;DHT22;8934;51.194;17.150;2023-04-26T07:25:08;8.60;99.90
17632;DHT22;8934;51.194;17.150;2023-04-26T07:27:56;8.80;99.90
17632;DHT22;8934;51.194;17.150;2023-04-26T07:30:43;9.30;99.90
17632;DHT22;8934;51.194;17.150;2023-04-26T07:33:31;9.60;99.90
17632;DHT22;8934;51.194;17.150;2023-04-26T07:36:20;9.70;99.90
17632;DHT22;8934;51.194;17.150;2023-04-26T07:39:10;9.70;99.90
17632;DHT22;8934;51.194;17.150;2023-04-26T07:41:58;9.30;99.90
17632;DHT22;8934;51.194;17.150;2023-04-26T07:44:47;9.00;99.90
17632;DHT22;8934;51.194;17.150;2023-04-26T07:47:34;9.00;99.90
17632;DHT22;8934;51.194;17.150;2023-04-26T07:50:23;9.20;99.90
17632;DHT22;8934;51.194;17.150;2023-04-26T07:53:12;9.50;99.90
17632;DHT22;8934;51.194;17.150;2023-04-26T07:55:59;9.60;99.90
17632;DHT22;8934;51.194;17.150;2023-04-26T07:58:47;9.80;99.90
17632;DHT22;8934;51.194;17.150;2023-04-26T08:01:35;10.20;99.90
17632;DHT22;8934;51.194;17.150;2023-04-26T08:04:30;10.00;99.90
17632;DHT22;8934;51.194;17.150;2023-04-26T08:07:19;9.80;99.90
17632;DHT22;8934;51.194;17.150;2023-04-26T08:10:09;9.90;99.90
17632;DHT22;8934;51.194;17.150;2023-04-26T08:12:57;10.40;99.90
17632;DHT22;8934;51.194;17.150;2023-04-26T08:15:48;10.60;99.90
17632;DHT22;8934;51.194;17.150;2023-04-26T08:18:35;10.50;99.90
17632;DHT22;8934;51.194;17.150;2023-04-26T08:21:23;10.30;99.90
17632;DHT22;8934;51.194;17.150;2023-04-26T08:24:11;10.10;99.90
17632;DHT22;8934;51.194;17.150;2023-04-26T08:27:00;10.00;99.90
17632;DHT22;8934;51.194;17.150;2023-04-26T08:29:48;10.10;99.90
17632;DHT22;8934;51.194;17.150;2023-04-26T08:32:36;10.20;99.90
17632;DHT22;8934;51.194;17.150;2023-04-26T08:35:24;10.30;99.90
17632;DHT22;8934;51.194;17.150;2023-04-26T08:38:12;10.30;99.90
17632;DHT22;8934;51.194;17.150;2023-04-26T08:40:59;10.50;99.90
17632;DHT22;8934;51.194;17.150;2023-04-26T08:43:50;10.50;99.90
17632;DHT22;8934;51.194;17.150;2023-04-26T08:46:46;10.70;99.90
17632;DHT22;8934;51.194;17.150;2023-04-26T08:49:40;10.70;99.90
17632;DHT22;8934;51.194;17.150;2023-04-26T08:52:29;10.80;99.90
17632;DHT22;8934;51.194;17.150;2023-04-26T08:55:18;11.20;99.90
17632;DHT22;8934;51.194;17.150;2023-04-26T08:58:06;11.30;99.90
17632;DHT22;8934;51.194;17.150;2023-04-26T09:00:56;11.10;99.90
17632;DHT22;8934;51.194;17.150;2023-04-26T09:03:45;10.70;99.90
17632;DHT22;8934;51.194;17.150;2023-04-26T09:06:33;10.20;99.90
17632;DHT22;8934;51.194;17.150;2023-04-26T09:09:21;10.20;99.90
17632;DHT22;8934;51.194;17.150;2023-04-26T09:12:09;10.80;99.90
17632;DHT22;8934;51.194;17.150;2023-04-26T09:14:57;11.20;99.90
17632;DHT22;8934;51.194;17.150;2023-04-26T09:17:46;11.60;99.90
17632;DHT22;8934;51.194;17.150;2023-04-26T09:20:34;11.60;99.90
17632;DHT22;8934;51.194;17.150;2023-04-26T09:23:22;11.40;99.90
17632;DHT22;8934;51.194;17.150;2023-04-26T09:26:17;11.10;99.90
17632;DHT22;8934;51.194;17.150;2023-04-26T09:29:13;11.40;99.90
17632;DHT22;8934;51.194;17.150;2023-04-26T09:32:00;11.90;99.90
17632;DHT22;8934;51.194;17.150;2023-04-26T09:34:50;12.40;99.90
17632;DHT22;8934;51.194;17.150;2023-04-26T09:37:38;12.20;99.90
17632;DHT22;8934;51.194;17.150;2023-04-26T09:40:46;11.70;99.90
17632;DHT22;8934;51.194;17.150;2023-04-26T09:43:36;11.10;99.90
17632;DHT22;8934;51.194;17.150;2023-04-26T09:46:24;10.70;99.90
17632;DHT22;8934;51.194;17.150;2023-04-26T09:49:12;10.60;99.90
17632;DHT22;8934;51.194;17.150;2023-04-26T09:52:03;10.80;99.90
17632;DHT22;8934;51.194;17.150;2023-04-26T09:54:52;11.60;99.90
17632;DHT22;8934;51.194;17.150;2023-04-26T09:57:42;12.50;99.90
17632;DHT22;8934;51.194;17.150;2023-04-26T10:00:30;13.00;99.90
17632;DHT22;8934;51.194;17.150;2023-04-26T10:03:19;13.40;99.90
17632;DHT22;8934;51.194;17.150;2023-04-26T10:06:07;13.00;99.90
17632;DHT22;8934;51.194;17.150;2023-04-26T10:08:57;12.70;99.90
17632;DHT22;8934;51.194;17.150;2023-04-26T10:11:45;12.10;99.90
17632;DHT22;8934;51.194;17.150;2023-04-26T10:14:33;11.50;99.90
17632;DHT22;8934;51.194;17.150;2023-04-26T10:17:21;11.00;99.90
17632;DHT22;8934;51.194;17.150;2023-04-26T10:20:11;10.80;99.90
17632;DHT22;8934;51.194;17.150;2023-04-26T10:23:01;10.50;99.90
17632;DHT22;8934;51.194;17.150;2023-04-26T10:25:52;10.50;99.90
17632;DHT22;8934;51.194;17.150;2023-04-26T10:28:54;11.10;99.90
17632;DHT22;8934;51.194;17.150;2023-04-26T10:32:08;12.10;99.90
17632;DHT22;8934;51.194;17.150;2023-04-26T10:35:09;12.70;99.90
17632;DHT22;8934;51.194;17.150;2023-04-26T10:38:07;13.00;99.90
17632;DHT22;8934;51.194;17.150;2023-04-26T10:41:26;12.70;99.90
17632;DHT22;8934;51.194;17.150;2023-04-26T10:44:36;12.10;99.90
17632;DHT22;8934;51.194;17.150;2023-04-26T10:47:27;11.50;99.90
17632;DHT22;8934;51.194;17.150;2023-04-26T10:50:15;11.10;99.90
17632;DHT22;8934;51.194;17.150;2023-04-26T10:53:05;10.90;99.90
17632;DHT22;8934;51.194;17.150;2023-04-26T10:55:53;11.30;99.90
17632;DHT22;8934;51.194;17.150;2023-04-26T10:58:45;12.10;99.90
17632;DHT22;8934;51.194;17.150;2023-04-26T11:01:33;12.90;99.90
17632;DHT22;8934;51.194;17.150;2023-04-26T11:04:20;13.30;99.90
17632;DHT22;8934;51.194;17.150;2023-04-26T11:07:08;12.90;99.90
17632;DHT22;8934;51.194;17.150;2023-04-26T11:09:59;12.50;99.90
17632;DHT22;8934;51.194;17.150;2023-04-26T11:12:58;12.40;99.90
17632;DHT22;8934;51.194;17.150;2023-04-26T11:15:52;12.50;99.90
17632;DHT22;8934;51.194;17.150;2023-04-26T11:18:41;12.20;99.90
17632;DHT22;8934;51.194;17.150;2023-04-26T11:21:29;11.90;99.90
17632;DHT22;8934;51.194;17.150;2023-04-26T11:24:24;11.80;99.90
17632;DHT22;8934;51.194;17.150;2023-04-26T11:27:12;11.80;99.90
17632;DHT22;8934;51.194;17.150;2023-04-26T11:30:03;11.90;99.90
17632;DHT22;8934;51.194;17.150;2023-04-26T11:32:55;12.30;99.90
17632;DHT22;8934;51.194;17.150;2023-04-26T11:35:44;12.50;99.90
17632;DHT22;8934;51.194;17.150;2023-04-26T11:38:33;12.70;99.90
17632;DHT22;8934;51.194;17.150;2023-04-26T11:41:22;12.50;99.90
17632;DHT22;8934;51.194;17.150;2023-04-26T11:44:10;12.70;99.90
17632;DHT22;8934;51.194;17.150;2023-04-26T11:46:58;13.50;99.30
17632;DHT22;8934;51.194;17.150;2023-04-26T11:49:50;13.60;98.90
17632;DHT22;8934;51.194;17.150;2023-04-26T11:52:38;14.10;97.70
17632;DHT22;8934;51.194;17.150;2023-04-26T11:55:27;14.20;95.40
17632;DHT22;8934;51.194;17.150;2023-04-26T11:58:16;13.80;97.20
17632;DHT22;8934;51.194;17.150;2023-04-26T12:01:04;12.90;95.40
17632;DHT22;8934;51.194;17.150;2023-04-26T12:03:53;11.90;98.00
17632;DHT22;8934;51.194;17.150;2023-04-26T12:06:44;10.90;99.90
17632;DHT22;8934;51.194;17.150;2023-04-26T12:09:32;10.10;99.90
17632;DHT22;8934;51.194;17.150;2023-04-26T12:12:22;9.80;99.90
17632;DHT22;8934;51.194;17.150;2023-04-26T12:15:11;9.70;99.90
17632;DHT22;8934;51.194;17.150;2023-04-26T12:18:06;9.70;99.90
17632;DHT22;8934;51.194;17.150;2023-04-26T12:20:57;9.80;99.90
17632;DHT22;8934;51.194;17.150;2023-04-26T12:23:47;10.10;99.90
17632;DHT22;8934;51.194;17.150;2023-04-26T12:26:41;10.50;99.90
17632;DHT22;8934;51.194;17.150;2023-04-26T12:29:30;10.90;99.90
17632;DHT22;8934;51.194;17.150;2023-04-26T12:32:17;11.60;99.90
17632;DHT22;8934;51.194;17.150;2023-04-26T12:35:08;12.50;99.90
17632;DHT22;8934;51.194;17.150;2023-04-26T12:37:56;12.80;99.90
17632;DHT22;8934;51.194;17.150;2023-04-26T12:40:47;12.70;99.90
17632;DHT22;8934;51.194;17.150;2023-04-26T12:43:34;12.80;99.90
17632;DHT22;8934;51.194;17.150;2023-04-26T12:46:22;12.80;99.90
17632;DHT22;8934;51.194;17.150;2023-04-26T12:49:11;13.10;99.90
17632;DHT22;8934;51.194;17.150;2023-04-26T12:51:58;13.30;97.20
17632;DHT22;8934;51.194;17.150;2023-04-26T12:54:46;13.10;97.50
17632;DHT22;8934;51.194;17.150;2023-04-26T12:57:36;12.50;98.30
17632;DHT22;8934;51.194;17.150;2023-04-26T13:00:23;11.80;99.90
17632;DHT22;8934;51.194;17.150;2023-04-26T13:03:12;11.50;99.90
17632;DHT22;8934;51.194;17.150;2023-04-26T13:06:01;11.90;99.90
17632;DHT22;8934;51.194;17.150;2023-04-26T13:08:49;13.00;99.90
17632;DHT22;8934;51.194;17.150;2023-04-26T13:11:37;13.30;99.70
17632;DHT22;8934;51.194;17.150;2023-04-26T13:14:26;13.00;99.20
17632;DHT22;8934;51.194;17.150;2023-04-26T13:17:14;12.40;99.10
17632;DHT22;8934;51.194;17.150;2023-04-26T13:20:02;11.60;99.90
17632;DHT22;8934;51.194;17.150;2023-04-26T13:22:51;10.80;99.90
17632;DHT22;8934;51.194;17.150;2023-04-26T13:25:39;10.30;99.90
17632;DHT22;8934;51.194;17.150;2023-04-26T13:28:27;9.90;99.90
17632;DHT22;8934;51.194;17.150;2023-04-26T13:31:16;9.80;99.90
17632;DHT22;8934;51.194;17.150;2023-04-26T13:34:07;9.80;99.90
17632;DHT22;8934;51.194;17.150;2023-04-26T13:36:55;9.90;99.90
17632;DHT22;8934;51.194;17.150;2023-04-26T13:39:43;10.00;99.90
17632;DHT22;8934;51.194;17.150;2023-04-26T13:42:31;10.10;99.90
17632;DHT22;8934;51.194;17.150;2023-04-26T13:45:18;10.10;99.90
17632;DHT22;8934;51.194;17.150;2023-04-26T13:48:07;10.20;99.90
17632;DHT22;8934;51.194;17.150;2023-04-26T13:50:55;10.40;99.90
17632;DHT22;8934;51.194;17.150;2023-04-26T13:53:44;10.50;99.90
17632;DHT22;8934;51.194;17.150;2023-04-26T13:56:32;10.40;99.90
17632;DHT22;8934;51.194;17.150;2023-04-26T13:59:20;10.50;99.90
17632;DHT22;8934;51.194;17.150;2023-04-26T14:02:08;10.50;99.90
17632;DHT22;8934;51.194;17.150;2023-04-26T14:04:57;10.60;99.90
17632;DHT22;8934;51.194;17.150;2023-04-26T14:07:45;10.70;99.90
17632;DHT22;8934;51.194;17.150;2023-04-26T14:10:33;10.90;99.90
17632;DHT22;8934;51.194;17.150;2023-04-26T14:13:21;11.00;99.90
17632;DHT22;8934;51.194;17.150;2023-04-26T14:16:08;11.20;99.90
17632;DHT22;8934;51.194;17.150;2023-04-26T14:18:56;11.30;99.90
17632;DHT22;8934;51.194;17.150;2023-04-26T14:21:45;11.50;99.90
17632;DHT22;8934;51.194;17.150;2023-04-26T14:24:33;11.70;99.90
17632;DHT22;8934;51.194;17.150;2023-04-26T14:27:21;12.10;99.90
17632;DHT22;8934;51.194;17.150;2023-04-26T14:30:09;12.80;99.50
17632;DHT22;8934;51.194;17.150;2023-04-26T14:32:56;13.70;98.10
17632;DHT22;8934;51.194;17.150;2023-04-26T14:35:43;14.30;97.40
17632;DHT22;8934;51.194;17.150;2023-04-26T14:38:33;14.20;95.30
17632;DHT22;8934;51.194;17.150;2023-04-26T14:41:20;13.40;95.50
17632;DHT22;8934;51.194;17.150;2023-04-26T14:44:08;12.70;97.70
17632;DHT22;8934;51.194;17.150;2023-04-26T14:46:56;12.20;98.10
17632;DHT22;8934;51.194;17.150;2023-04-26T14:49:43;11.70;99.70
17632;DHT22;8934;51.194;17.150;2023-04-26T14:52:33;11.30;99.90
17632;DHT22;8934;51.194;17.150;2023-04-26T14:55:22;11.10;99.90
17632;DHT22;8934;51.194;17.150;2023-04-26T14:58:12;10.90;99.90
17632;DHT22;8934;51.194;17.150;2023-04-26T15:00:59;10.60;99.90
17632;DHT22;8934;51.194;17.150;2023-04-26T15:03:47;10.50;99.90
17632;DHT22;8934;51.194;17.150;2023-04-26T15:06:35;10.40;99.90
17632;DHT22;8934;51.194;17.150;2023-04-26T15:09:22;10.30;99.90
17632;DHT22;8934;51.194;17.150;2023-04-26T15:12:12;10.10;99.90
17632;DHT22;8934;51.194;17.150;2023-04-26T15:14:59;9.90;99.90
17632;DHT22;8934;51.194;17.150;2023-04-26T15:17:47;9.80;99.90
17632;DHT22;8934;51.194;17.150;2023-04-26T15:20:38;9.60;99.90
17632;DHT22;8934;51.194;17.150;2023-04-26T15:23:26;9.50;99.90
17632;DHT22;8934;51.194;17.150;2023-04-26T15:26:14;9.50;99.90
17632;DHT22;8934;51.194;17.150;2023-04-26T15:29:03;9.40;99.90
17632;DHT22;8934;51.194;17.150;2023-04-26T15:31:51;9.50;99.90
17632;DHT22;8934;51.194;17.150;2023-04-26T15:34:40;9.50;99.90
17632;DHT22;8934;51.194;17.150;2023-04-26T15:37:30;9.70;99.90
17632;DHT22;8934;51.194;17.150;2023-04-26T15:40:18;10.10;99.90
17632;DHT22;8934;51.194;17.150;2023-04-26T15:43:07;10.80;99.90
17632;DHT22;8934;51.194;17.150;2023-04-26T15:45:55;12.00;99.90
17632;DHT22;8934;51.194;17.150;2023-04-26T15:48:43;13.30;99.90
17632;DHT22;8934;51.194;17.150;2023-04-26T15:51:31;14.30;99.90
17632;DHT22;8934;51.194;17.150;2023-04-26T15:54:18;15.00;99.90
17632;DHT22;8934;51.194;17.150;2023-04-26T15:57:07;15.50;97.60
17632;DHT22;8934;51.194;17.150;2023-04-26T15:59:56;15.90;97.00
17632;DHT22;8934;51.194;17.150;2023-04-26T16:02:45;16.00;96.10
17632;DHT22;8934;51.194;17.150;2023-04-26T16:05:33;15.80;95.70
17632;DHT22;8934;51.194;17.150;2023-04-26T16:08:21;15.50;95.30
17632;DHT22;8934;51.194;17.150;2023-04-26T16:11:25;15.00;95.80
17632;DHT22;8934;51.194;17.150;2023-04-26T16:14:13;14.80;96.90
17632;DHT22;8934;51.194;17.150;2023-04-26T16:17:01;14.70;97.80
17632;DHT22;8934;51.194;17.150;2023-04-26T16:19:51;14.50;98.20
17632;DHT22;8934;51.194;17.150;2023-04-26T16:22:39;14.40;98.80
17632;DHT22;8934;51.194;17.150;2023-04-26T16:25:28;14.50;98.00
17632;DHT22;8934;51.194;17.150;2023-04-26T16:28:16;14.00;99.50
17632;DHT22;8934;51.194;17.150;2023-04-26T16:31:04;13.50;99.20
17632;DHT22;8934;51.194;17.150;2023-04-26T16:33:52;12.90;99.90
17632;DHT22;8934;51.194;17.150;2023-04-26T16:36:41;12.50;99.90
17632;DHT22;8934;51.194;17.150;2023-04-26T16:39:29;12.10;99.90
17632;DHT22;8934;51.194;17.150;2023-04-26T16:42:16;11.40;99.90
17632;DHT22;8934;51.194;17.150;2023-04-26T16:45:05;10.90;99.90
17632;DHT22;8934;51.194;17.150;2023-04-26T16:47:52;10.50;99.90
17632;DHT22;8934;51.194;17.150;2023-04-26T16:50:40;10.20;99.90
17632;DHT22;8934;51.194;17.150;2023-04-26T16:53:30;10.00;99.90
17632;DHT22;8934;51.194;17.150;2023-04-26T16:56:18;9.70;99.90
17632;DHT22;8934;51.194;17.150;2023-04-26T16:59:06;9.40;99.90
17632;DHT22;8934;51.194;17.150;2023-04-26T17:01:54;9.20;99.90
17632;DHT22;8934;51.194;17.150;2023-04-26T17:04:42;9.00;99.90
17632;DHT22;8934;51.194;17.150;2023-04-26T17:07:30;8.90;99.90
17632;DHT22;8934;51.194;17.150;2023-04-26T17:10:19;8.80;99.90
17632;DHT22;8934;51.194;17.150;2023-04-26T17:13:06;8.70;99.90
17632;DHT22;8934;51.194;17.150;2023-04-26T17:15:54;8.60;99.90
17632;DHT22;8934;51.194;17.150;2023-04-26T17:18:42;8.50;99.90
17632;DHT22;8934;51.194;17.150;2023-04-26T17:21:30;8.40;99.90
17632;DHT22;8934;51.194;17.150;2023-04-26T17:24:17;8.40;99.90
17632;DHT22;8934;51.194;17.150;2023-04-26T17:27:06;8.30;99.90
17632;DHT22;8934;51.194;17.150;2023-04-26T17:29:54;8.30;99.90
17632;DHT22;8934;51.194;17.150;2023-04-26T17:32:42;8.30;99.90
17632;DHT22;8934;51.194;17.150;2023-04-26T17:35:30;8.20;99.90
17632;DHT22;8934;51.194;17.150;2023-04-26T17:38:17;8.20;99.90
17632;DHT22;8934;51.194;17.150;2023-04-26T17:41:04;8.20;99.90
17632;DHT22;8934;51.194;17.150;2023-04-26T17:43:53;8.10;99.90
17632;DHT22;8934;51.194;17.150;2023-04-26T17:46:41;8.10;99.90
17632;DHT22;8934;51.194;17.150;2023-04-26T17:49:29;8.10;99.90
17632;DHT22;8934;51.194;17.150;2023-04-26T17:52:17;8.10;99.90
17632;DHT22;8934;51.194;17.150;2023-04-26T17:55:06;8.00;99.90
17632;DHT22;8934;51.194;17.150;2023-04-26T17:58:25;8.00;99.90
17632;DHT22;8934;51.194;17.150;2023-04-26T18:01:14;7.90;99.90